createdAt,value
2024-05-09T00:00:40.600Z,102520.78
2024-05-09T00:03:10.085Z,102514.19
2024-05-09T00:05:38.501Z,102520.09
2024-05-09T00:08:06.399Z,102522.56
2024-05-09T00:10:37.239Z,102517.28
2024-05-09T00:13:08.824Z,102516.69
2024-05-09T00:15:36.783Z,102519.06
2024-05-09T00:18:05.588Z,102519.13
2024-05-09T00:20:38.346Z,102513.16
2024-05-09T00:23:14.235Z,102521.13
2024-05-09T00:25:45.077Z,102519.53
2024-05-09T00:28:12.832Z,102515.06
2024-05-09T00:30:40.109Z,102519.78
2024-05-09T00:33:09.088Z,102515.84
2024-05-09T00:35:37.559Z,102513.00
2024-05-09T00:38:07.430Z,102516.03
2024-05-09T00:40:43.306Z,102512.44
2024-05-09T00:43:12.090Z,102504.47
2024-05-09T00:45:39.874Z,102510.78
2024-05-09T00:48:09.541Z,102511.06
2024-05-09T00:50:41.196Z,102510.06
2024-05-09T00:53:11.486Z,102515.41
2024-05-09T00:55:39.439Z,102511.06
2024-05-09T00:58:08.316Z,102515.31
2024-05-09T01:00:39.485Z,102511.59
2024-05-09T01:03:13.029Z,102513.16
2024-05-09T01:05:41.862Z,102514.44
2024-05-09T01:08:10.425Z,102502.75
2024-05-09T01:10:37.919Z,102502.97
2024-05-09T01:13:05.989Z,102501.72
2024-05-09T01:15:34.223Z,102505.88
2024-05-09T01:18:02.154Z,102507.19
2024-05-09T01:20:39.207Z,102513.25
2024-05-09T01:23:09.783Z,102509.53
2024-05-09T01:25:37.177Z,102505.66
2024-05-09T01:28:04.457Z,102504.47
2024-05-09T01:30:35.250Z,102501.94
2024-05-09T01:33:06.250Z,102492.41
2024-05-09T01:35:34.912Z,102500.59
2024-05-09T01:38:02.274Z,102497.34
2024-05-09T01:40:36.822Z,102487.44
2024-05-09T01:43:06.633Z,102486.47
2024-05-09T01:45:33.819Z,102488.09
2024-05-09T01:48:01.302Z,102476.41
2024-05-09T01:50:37.942Z,102493.75
2024-05-09T01:53:09.339Z,102483.63
2024-05-09T01:55:36.538Z,102487.78
2024-05-09T01:58:03.286Z,102493.72
2024-05-09T02:00:38.753Z,102478.03
2024-05-09T02:03:10.722Z,102487.31
2024-05-09T02:05:39.618Z,102489.28
2024-05-09T02:08:07.440Z,102483.00
2024-05-09T02:10:34.589Z,102493.94
2024-05-09T02:13:01.528Z,102498.19
2024-05-09T02:15:28.690Z,102493.19
2024-05-09T02:17:56.049Z,102499.59
2024-05-09T02:20:30.612Z,102482.28
2024-05-09T02:23:04.466Z,102492.91
2024-05-09T02:25:32.671Z,102490.16
2024-05-09T02:27:59.960Z,102487.78
2024-05-09T02:30:37.778Z,102487.84
2024-05-09T02:33:08.705Z,102484.44
2024-05-09T02:35:36.644Z,102488.41
2024-05-09T02:38:03.944Z,102488.97
2024-05-09T02:40:37.397Z,102491.31
2024-05-09T02:43:07.115Z,102486.41
2024-05-09T02:45:34.521Z,102490.22
2024-05-09T02:48:02.230Z,102487.53
2024-05-09T02:50:36.977Z,102489.34
2024-05-09T02:53:10.124Z,102494.59
2024-05-09T02:55:40.104Z,102481.22
2024-05-09T02:58:07.668Z,102494.69
2024-05-09T03:00:39.384Z,102479.00
2024-05-09T03:03:10.242Z,102485.16
2024-05-09T03:05:39.770Z,102488.06
2024-05-09T03:08:07.432Z,102479.59
2024-05-09T03:10:36.801Z,102480.16
2024-05-09T03:13:15.036Z,102477.94
2024-05-09T03:15:43.966Z,102473.50
2024-05-09T03:18:11.628Z,102470.72
2024-05-09T03:20:39.564Z,102478.72
2024-05-09T03:23:08.867Z,102479.97
2024-05-09T03:25:37.020Z,102475.59
2024-05-09T03:28:04.181Z,102480.75
2024-05-09T03:30:39.769Z,102476.16
2024-05-09T03:33:11.403Z,102485.47
2024-05-09T03:35:38.943Z,102479.88
2024-05-09T03:38:05.796Z,102471.16
2024-05-09T03:40:32.727Z,102484.78
2024-05-09T03:42:59.557Z,102476.63
2024-05-09T03:45:26.507Z,102477.38
2024-05-09T03:47:53.635Z,102482.97
2024-05-09T03:50:29.841Z,102479.41
2024-05-09T03:53:01.460Z,102488.19
2024-05-09T03:55:28.945Z,102482.16
2024-05-09T03:57:55.973Z,102480.38
2024-05-09T04:00:31.098Z,102484.34
2024-05-09T04:03:06.067Z,102480.53
2024-05-09T04:05:34.968Z,102482.00
2024-05-09T04:08:02.471Z,102475.66
2024-05-09T04:10:33.687Z,102476.72
2024-05-09T04:13:02.363Z,102480.22
2024-05-09T04:15:29.657Z,102476.94
2024-05-09T04:17:56.828Z,102478.00
2024-05-09T04:20:33.416Z,102480.38
2024-05-09T04:23:13.746Z,102478.88
2024-05-09T04:25:42.538Z,102481.34
2024-05-09T04:28:09.786Z,102481.16
2024-05-09T04:30:39.855Z,102488.50
2024-05-09T04:33:11.321Z,102483.16
2024-05-09T04:35:42.615Z,102484.38
2024-05-09T04:38:10.421Z,102486.34
2024-05-09T04:40:37.947Z,102489.28
2024-05-09T04:43:06.517Z,102484.84
2024-05-09T04:45:33.900Z,102484.53
2024-05-09T04:48:01.628Z,102488.25
2024-05-09T04:50:35.638Z,102487.44
2024-05-09T04:53:06.737Z,102490.25
2024-05-09T04:55:34.444Z,102489.56
2024-05-09T04:58:01.947Z,102482.47
2024-05-09T05:00:35.842Z,102486.38
2024-05-09T05:03:10.503Z,102476.94
2024-05-09T05:05:43.386Z,102480.06
2024-05-09T05:08:15.394Z,102477.88
2024-05-09T05:10:43.255Z,102482.59
2024-05-09T05:13:25.298Z,102480.97
2024-05-09T05:15:58.708Z,102484.91
2024-05-09T05:18:29.222Z,102485.69
2024-05-09T05:20:57.156Z,102479.66
2024-05-09T05:23:24.904Z,102480.41
2024-05-09T05:25:55.643Z,102474.59
2024-05-09T05:28:23.470Z,102478.38
2024-05-09T05:30:50.806Z,102468.69
2024-05-09T05:33:23.049Z,102472.00
2024-05-09T05:35:50.490Z,102480.13
2024-05-09T05:38:17.611Z,102480.09
2024-05-09T05:40:44.960Z,102478.38
2024-05-09T05:43:19.020Z,102469.03
2024-05-09T05:45:46.250Z,102478.19
2024-05-09T05:48:14.058Z,102477.84
2024-05-09T05:50:41.349Z,102470.94
2024-05-09T05:53:10.159Z,102472.53
2024-05-09T05:55:38.972Z,102473.53
2024-05-09T05:58:08.535Z,102462.81
2024-05-09T06:00:38.995Z,102473.41
2024-05-09T06:03:12.335Z,102470.31
2024-05-09T06:05:40.753Z,102465.88
2024-05-09T06:08:08.360Z,102470.72
2024-05-09T06:10:39.347Z,102465.22
2024-05-09T06:13:08.340Z,102471.09
2024-05-09T06:15:35.586Z,102472.66
2024-05-09T06:18:06.222Z,102469.19
2024-05-09T06:20:36.585Z,102469.03
2024-05-09T06:23:09.021Z,102468.94
2024-05-09T06:25:36.873Z,102463.00
2024-05-09T06:28:04.682Z,102466.91
2024-05-09T06:33:03.178Z,102465.56
2024-05-09T06:35:30.567Z,102462.34
2024-05-09T06:37:57.823Z,102474.75
2024-05-09T06:40:29.443Z,102470.94
2024-05-09T06:43:02.285Z,102471.06
2024-05-09T06:45:29.322Z,102470.50
2024-05-09T06:47:56.394Z,102470.59
2024-05-09T06:50:28.491Z,102463.78
2024-05-09T06:53:02.564Z,102463.72
2024-05-09T06:55:29.592Z,102463.75
2024-05-09T06:57:56.552Z,102463.94
2024-05-09T07:00:30.702Z,102457.16
2024-05-09T07:03:12.176Z,102456.41
2024-05-09T07:05:40.555Z,102454.56
2024-05-09T07:08:07.993Z,102456.34
2024-05-09T07:10:36.500Z,102449.56
2024-05-09T07:13:09.071Z,102453.09
2024-05-09T07:15:36.187Z,102450.31
2024-05-09T07:18:18.265Z,102454.00
2024-05-09T07:20:47.299Z,102454.00
2024-05-09T07:23:17.335Z,102451.38
2024-05-09T07:25:44.551Z,102452.25
2024-05-09T07:28:14.055Z,102458.38
2024-05-09T07:30:41.409Z,102454.91
2024-05-09T07:33:09.034Z,102462.75
2024-05-09T07:35:36.464Z,102459.19
2024-05-09T07:38:03.555Z,102455.53
2024-05-09T07:40:35.884Z,102454.59
2024-05-09T07:43:07.284Z,102455.25
2024-05-09T07:52:23.986Z,102452.13
2024-05-09T07:53:39.223Z,102450.22
2024-05-09T07:56:10.157Z,102455.66
2024-05-09T07:58:38.422Z,102453.03
2024-05-09T08:01:05.730Z,102440.06
2024-05-09T08:03:33.374Z,102444.03
2024-05-09T08:06:00.282Z,102443.75
2024-05-09T08:08:27.305Z,102431.78
2024-05-09T08:10:54.216Z,102447.69
2024-05-09T08:13:21.436Z,102439.84
2024-05-09T08:15:48.382Z,102429.78
2024-05-09T08:18:15.987Z,102426.09
2024-05-09T08:20:43.895Z,102438.63
2024-05-09T08:23:11.641Z,102427.84
2024-05-09T08:25:38.943Z,102430.38
2024-05-09T08:28:06.378Z,102427.19
2024-05-09T08:30:37.093Z,102444.19
2024-05-09T08:33:11.113Z,102432.84
2024-05-09T08:35:38.390Z,102434.34
2024-05-09T08:38:06.885Z,102428.09
2024-05-09T08:40:37.998Z,102422.16
2024-05-09T08:43:10.863Z,102435.28
2024-05-09T08:45:43.867Z,102429.81
2024-05-09T08:48:13.646Z,102421.47
2024-05-09T08:50:42.020Z,102424.06
2024-05-09T08:53:09.488Z,102426.78
2024-05-09T08:55:40.756Z,102422.44
2024-05-09T08:58:12.986Z,102426.34
2024-05-09T09:00:40.683Z,102418.59
2024-05-09T09:03:12.149Z,102420.38
2024-05-09T09:05:40.044Z,102418.03
2024-05-09T09:08:08.879Z,102423.13
2024-05-09T09:10:36.124Z,102419.34
2024-05-09T09:13:09.930Z,102419.44
2024-05-09T09:15:57.518Z,102425.63
2024-05-09T09:18:26.761Z,102425.25
2024-05-09T09:20:54.215Z,102416.88
2024-05-09T09:23:21.245Z,102423.22
2024-05-09T09:25:48.078Z,102416.50
2024-05-09T09:28:15.208Z,102414.34
2024-05-09T09:30:43.223Z,102408.56
2024-05-09T09:33:10.811Z,102406.53
2024-05-09T09:35:40.206Z,102411.88
2024-05-09T09:38:08.447Z,102411.31
2024-05-09T09:40:40.986Z,102402.13
2024-05-09T09:43:15.403Z,102402.16
2024-05-09T09:45:43.775Z,102397.41
2024-05-09T09:48:12.425Z,102405.50
2024-05-09T09:50:40.559Z,102406.34
2024-05-09T09:53:08.012Z,102401.16
2024-05-09T09:55:35.275Z,102392.31
2024-05-09T09:58:04.628Z,102398.03
2024-05-09T10:00:33.763Z,102393.94
2024-05-09T10:03:01.974Z,102393.31
2024-05-09T10:05:32.340Z,102390.72
2024-05-09T10:08:03.713Z,102398.22
2024-05-09T10:10:33.455Z,102386.97
2024-05-09T10:13:04.739Z,102385.59
2024-05-09T10:15:47.862Z,102386.25
2024-05-09T10:18:15.455Z,102389.59
2024-05-09T10:20:49.479Z,102377.81
2024-05-09T10:23:29.803Z,102373.56
2024-05-09T10:26:01.226Z,102378.22
2024-05-09T10:28:32.667Z,102374.59
2024-05-09T10:31:03.121Z,102378.56
2024-05-09T10:33:39.682Z,102372.38
2024-05-09T10:36:15.390Z,102369.56
2024-05-09T10:38:43.462Z,102373.06
2024-05-09T10:41:11.316Z,102360.72
2024-05-09T10:43:41.864Z,102362.03
2024-05-09T10:46:09.882Z,102360.06
2024-05-09T10:48:38.182Z,102359.38
2024-05-09T10:51:05.363Z,102362.72
2024-05-09T10:53:32.496Z,102352.94
2024-05-09T10:56:01.777Z,102346.75
2024-05-09T10:58:28.830Z,102359.03
2024-05-09T11:00:56.081Z,102351.75
2024-05-09T11:03:24.470Z,102349.75
2024-05-09T11:05:54.501Z,102346.22
2024-05-09T11:08:22.441Z,102356.53
2024-05-09T11:10:53.131Z,102348.06
2024-05-09T11:13:30.932Z,102343.34
2024-05-09T11:15:58.483Z,102344.00
2024-05-09T11:18:36.396Z,102337.53
2024-05-09T11:21:12.555Z,102334.19
2024-05-09T11:23:40.344Z,102340.69
2024-05-09T11:26:09.856Z,102341.84
2024-05-09T11:28:37.004Z,102337.41
2024-05-09T11:31:09.453Z,102337.25
2024-05-09T11:33:42.114Z,102332.22
2024-05-09T11:36:09.751Z,102338.66
2024-05-09T11:38:36.868Z,102339.47
2024-05-09T11:41:04.737Z,102336.34
2024-05-09T11:43:31.729Z,102330.59
2024-05-09T11:45:59.046Z,102326.31
2024-05-09T11:48:26.804Z,102318.31
2024-05-09T11:50:55.342Z,102324.94
2024-05-09T11:53:22.315Z,102317.28
2024-05-09T11:55:49.371Z,102324.16
2024-05-09T11:58:18.363Z,102314.72
2024-05-09T12:00:46.733Z,102311.44
2024-05-09T12:03:14.087Z,102307.19
2024-05-09T12:05:41.343Z,102317.28
2024-05-09T12:08:08.483Z,102308.22
2024-05-09T12:10:36.797Z,102307.41
2024-05-09T12:13:05.983Z,102316.59
2024-05-09T12:15:37.286Z,102314.94
2024-05-09T12:18:05.718Z,102312.56
2024-05-09T12:20:37.517Z,102304.50
2024-05-09T12:23:07.644Z,102304.50
2024-05-09T12:25:36.040Z,102308.50
2024-05-09T12:28:02.945Z,102302.97
2024-05-09T12:30:36.584Z,102287.50
2024-05-09T12:33:11.510Z,102300.13
2024-05-09T12:35:39.488Z,102292.25
2024-05-09T12:38:06.427Z,102288.97
2024-05-09T12:40:36.985Z,102281.81
2024-05-09T12:43:07.421Z,102280.69
2024-05-09T12:45:35.345Z,102282.41
2024-05-09T12:48:02.383Z,102281.63
2024-05-09T12:50:32.734Z,102287.00
2024-05-09T12:53:02.067Z,102292.47
2024-05-09T12:55:33.972Z,102270.00
2024-05-09T12:58:07.772Z,102278.59
2024-05-09T13:00:35.264Z,102273.19
2024-05-09T13:03:02.211Z,102275.72
2024-05-09T13:05:29.888Z,102280.16
2024-05-09T13:07:57.237Z,102278.50
2024-05-09T13:10:31.643Z,102279.19
2024-05-09T13:13:00.554Z,102275.47
2024-05-09T13:15:28.156Z,102280.84
2024-05-09T13:17:58.074Z,102271.75
2024-05-09T13:20:32.799Z,102275.50
2024-05-09T13:23:02.829Z,102274.16
2024-05-09T13:25:29.874Z,102277.19
2024-05-09T13:27:57.464Z,102272.56
2024-05-09T13:30:35.585Z,102273.31
2024-05-09T13:33:07.490Z,102270.69
2024-05-09T13:35:40.151Z,102280.75
2024-05-09T13:38:07.638Z,102270.84
2024-05-09T13:40:36.342Z,102274.66
2024-05-09T13:43:06.287Z,102272.63
2024-05-09T13:45:34.221Z,102271.03
2024-05-09T13:48:02.716Z,102265.94
2024-05-09T13:50:35.914Z,102279.88
2024-05-09T13:53:06.427Z,102272.81
2024-05-09T13:55:35.550Z,102263.78
2024-05-09T13:58:02.875Z,102264.53
2024-05-09T14:02:59.697Z,102256.38
2024-05-09T14:05:26.935Z,102263.09
2024-05-09T14:07:54.005Z,102258.94
2024-05-09T14:10:26.212Z,102258.88
2024-05-09T14:13:01.280Z,102260.00
2024-05-09T14:15:28.332Z,102257.94
2024-05-09T14:17:55.754Z,102255.16
2024-05-09T14:20:30.760Z,102258.84
2024-05-09T14:23:02.314Z,102261.84
2024-05-09T14:25:30.118Z,102258.66
2024-05-09T14:28:00.469Z,102244.09
2024-05-09T14:30:34.830Z,102248.66
2024-05-09T14:33:05.917Z,102245.75
2024-05-09T14:35:33.834Z,102245.56
2024-05-09T14:38:00.968Z,102242.41
2024-05-09T14:40:38.753Z,102230.31
2024-05-09T14:43:11.349Z,102235.94
2024-05-09T14:45:38.922Z,102237.69
2024-05-09T14:48:07.109Z,102234.63
2024-05-09T14:50:37.924Z,102237.28
2024-05-09T14:53:10.273Z,102234.09
2024-05-09T14:55:39.258Z,102230.38
2024-05-09T14:58:07.656Z,102234.81
2024-05-09T15:00:42.281Z,102227.72
2024-05-09T15:03:12.853Z,102232.72
2024-05-09T15:05:40.614Z,102236.25
2024-05-09T15:08:08.754Z,102236.34
2024-05-09T15:10:37.014Z,102225.13
2024-05-09T15:13:06.600Z,102218.03
2024-05-09T15:15:35.361Z,102228.56
2024-05-09T15:18:02.440Z,102218.91
2024-05-09T15:20:34.698Z,102210.84
2024-05-09T15:23:04.671Z,102211.47
2024-05-09T15:25:33.813Z,102206.47
2024-05-09T15:28:01.211Z,102209.41
2024-05-09T15:30:31.544Z,102208.09
2024-05-09T15:33:01.406Z,102209.97
2024-05-09T15:35:28.674Z,102205.78
2024-05-09T15:37:55.897Z,102209.06
2024-05-09T15:40:31.663Z,102210.47
2024-05-09T15:43:06.073Z,102203.81
2024-05-09T15:45:33.245Z,102202.88
2024-05-09T15:48:00.874Z,102199.25
2024-05-09T15:50:36.744Z,102208.72
2024-05-09T15:53:10.109Z,102195.41
2024-05-09T15:55:40.783Z,102197.75
2024-05-09T15:58:08.987Z,102194.34
2024-05-09T16:00:41.989Z,102197.94
2024-05-09T16:03:19.513Z,102186.34
2024-05-09T16:05:49.052Z,102194.16
2024-05-09T16:08:16.529Z,102202.13
2024-05-09T16:10:46.290Z,102195.94
2024-05-09T16:13:14.229Z,102192.44
2024-05-09T16:15:41.489Z,102197.31
2024-05-09T16:18:08.751Z,102185.50
2024-05-09T16:20:40.169Z,102191.38
2024-05-09T16:23:09.295Z,102193.13
2024-05-09T16:25:36.486Z,102176.72
2024-05-09T16:28:07.477Z,102187.94
2024-05-09T16:30:37.181Z,102192.47
2024-05-09T16:33:05.385Z,102183.53
2024-05-09T16:35:33.227Z,102187.84
2024-05-09T16:38:02.370Z,102183.03
2024-05-09T16:40:36.607Z,102189.78
2024-05-09T16:43:07.187Z,102186.22
2024-05-09T16:45:34.831Z,102186.81
2024-05-09T16:48:07.032Z,102183.03
2024-05-09T16:50:35.826Z,102178.00
2024-05-09T16:53:06.418Z,102178.25
2024-05-09T16:55:34.034Z,102179.66
2024-05-09T16:58:01.442Z,102182.69
2024-05-09T17:00:39.065Z,102179.38
2024-05-09T17:03:11.115Z,102181.53
2024-05-09T17:05:39.019Z,102187.00
2024-05-09T17:08:06.792Z,102176.50
2024-05-09T17:10:35.353Z,102182.06
2024-05-09T17:13:04.525Z,102175.44
2024-05-09T17:15:33.275Z,102174.09
2024-05-09T17:18:00.859Z,102171.06
2024-05-09T17:20:33.237Z,102171.22
2024-05-09T17:23:04.181Z,102181.19
2024-05-09T17:25:31.536Z,102182.69
2024-05-09T17:28:05.308Z,102182.22
2024-05-09T17:30:36.458Z,102186.72
2024-05-09T17:33:06.891Z,102178.34
2024-05-09T17:35:34.779Z,102173.19
2024-05-09T17:38:01.945Z,102177.66
2024-05-09T17:40:33.749Z,102170.47
2024-05-09T17:43:03.916Z,102178.44
2024-05-09T17:45:32.055Z,102176.91
2024-05-09T17:47:59.989Z,102172.22
2024-05-09T17:50:35.097Z,102169.88
2024-05-09T17:53:05.207Z,102170.34
2024-05-09T17:55:32.467Z,102174.28
2024-05-09T17:58:00.925Z,102183.22
2024-05-09T18:00:37.451Z,102175.31
2024-05-09T18:03:12.502Z,102175.13
2024-05-09T18:05:41.807Z,102180.56
2024-05-09T18:08:10.313Z,102176.22
2024-05-09T18:10:39.835Z,102171.44
2024-05-09T18:13:11.777Z,102174.28
2024-05-09T18:15:41.487Z,102171.53
2024-05-09T18:18:09.714Z,102177.97
2024-05-09T18:20:43.989Z,102177.88
2024-05-09T18:23:16.612Z,102173.56
2024-05-09T18:25:47.133Z,102179.75
2024-05-09T18:28:16.812Z,102175.38
2024-05-09T18:30:44.786Z,102178.75
2024-05-09T18:33:16.533Z,102182.41
2024-05-09T18:35:45.161Z,102172.78
2024-05-09T18:38:13.110Z,102173.56
2024-05-09T18:40:42.686Z,102175.31
2024-05-09T18:43:11.398Z,102179.69
2024-05-09T18:45:39.291Z,102182.41
2024-05-09T18:48:10.497Z,102173.69
2024-05-09T18:50:41.687Z,102177.97
2024-05-09T18:53:11.775Z,102181.53
2024-05-09T18:55:39.987Z,102180.63
2024-05-09T18:58:07.655Z,102186.72
2024-05-09T19:00:38.420Z,102176.81
2024-05-09T19:03:11.567Z,102172.50
2024-05-09T19:05:41.509Z,102185.91
2024-05-09T19:08:09.268Z,102182.38
2024-05-09T19:10:38.998Z,102184.19
2024-05-09T19:13:11.704Z,102191.31
2024-05-09T19:15:41.061Z,102181.63
2024-05-09T19:18:08.771Z,102179.78
2024-05-09T19:20:36.917Z,102168.06
2024-05-09T19:23:06.671Z,102178.78
2024-05-09T19:25:35.044Z,102175.28
2024-05-09T19:28:02.388Z,102179.72
2024-05-09T19:30:37.676Z,102186.81
2024-05-09T19:33:08.927Z,102188.66
2024-05-09T19:35:36.469Z,102182.31
2024-05-09T19:38:03.996Z,102179.50
2024-05-09T19:40:32.991Z,102186.75
2024-05-09T19:43:02.860Z,102194.75
2024-05-09T19:45:30.562Z,102187.78
2024-05-09T19:47:57.824Z,102191.25
2024-05-09T19:50:32.738Z,102193.97
2024-05-09T19:53:08.109Z,102192.19
2024-05-09T19:55:35.200Z,102199.25
2024-05-09T19:58:05.275Z,102189.59
2024-05-09T20:00:39.479Z,102192.09
2024-05-09T20:03:09.507Z,102186.91
2024-05-09T20:05:37.690Z,102188.69
2024-05-09T20:08:05.970Z,102186.03
2024-05-09T20:10:35.305Z,102186.91
2024-05-09T20:13:04.864Z,102200.97
2024-05-09T20:15:34.827Z,102201.88
2024-05-09T20:18:05.897Z,102198.38
2024-05-09T20:20:41.381Z,102202.75
2024-05-09T20:23:17.449Z,102194.84
2024-05-09T20:25:44.395Z,102196.63
2024-05-09T20:28:12.639Z,102193.09
2024-05-09T20:30:42.097Z,102193.13
2024-05-09T20:33:10.016Z,102194.84
2024-05-09T20:35:37.352Z,102195.69
2024-05-09T20:38:04.892Z,102184.25
2024-05-09T20:40:36.241Z,102185.94
2024-05-09T20:43:06.790Z,102198.25
2024-05-09T20:45:34.674Z,102193.88
2024-05-09T20:48:05.544Z,102187.78
2024-05-09T20:50:38.601Z,102179.88
2024-05-09T20:53:09.635Z,102179.00
2024-05-09T20:55:41.451Z,102171.94
2024-05-09T20:58:09.627Z,102184.28
2024-05-09T21:00:40.592Z,102179.88
2024-05-09T21:03:13.877Z,102171.91
2024-05-09T21:05:42.067Z,102175.50
2024-05-09T21:08:11.475Z,102176.34
2024-05-09T21:10:38.654Z,102186.88
2024-05-09T21:13:06.755Z,102175.41
2024-05-09T21:15:34.590Z,102179.78
2024-05-09T21:18:01.722Z,102171.00
2024-05-09T21:20:31.697Z,102166.59
2024-05-09T21:23:03.529Z,102171.84
2024-05-09T21:25:31.158Z,102171.78
2024-05-09T21:27:58.220Z,102171.91
2024-05-09T21:30:37.754Z,102175.41
2024-05-09T21:33:10.386Z,102174.56
2024-05-09T21:35:39.390Z,102168.38
2024-05-09T21:38:07.545Z,102178.91
2024-05-09T21:40:36.166Z,102167.56
2024-05-09T21:43:04.955Z,102158.72
2024-05-09T21:45:32.464Z,102158.72
2024-05-09T21:47:59.681Z,102161.34
2024-05-09T21:50:35.763Z,102159.59
2024-05-09T21:53:07.090Z,102157.84
2024-05-09T21:55:34.581Z,102153.47
2024-05-09T21:58:01.823Z,102151.69
2024-05-09T22:00:35.745Z,102149.91
2024-05-09T22:03:06.175Z,102144.63
2024-05-09T22:05:33.440Z,102142.84
2024-05-09T22:08:00.894Z,102142.88
2024-05-09T22:10:33.736Z,102140.22
2024-05-09T22:13:03.427Z,102140.22
2024-05-09T22:15:30.739Z,102136.69
2024-05-09T22:17:57.920Z,102127.88
2024-05-09T22:20:33.916Z,102134.06
2024-05-09T22:23:04.891Z,102130.53
2024-05-09T22:25:32.687Z,102127.88
2024-05-09T22:28:01.301Z,102129.66
2024-05-09T22:30:35.743Z,102137.59
2024-05-09T22:33:07.802Z,102132.31
2024-05-09T22:35:35.123Z,102127.91
2024-05-09T22:38:05.395Z,102130.53
2024-05-09T22:40:42.040Z,102133.22
2024-05-09T22:43:21.055Z,102117.31
2024-05-09T22:45:50.140Z,102120.88
2024-05-09T22:48:17.605Z,102125.28
2024-05-09T22:50:44.998Z,102128.78
2024-05-09T22:53:11.839Z,102113.81
2024-05-09T22:55:40.934Z,102126.16
2024-05-09T22:58:07.807Z,102120.84
2024-05-09T23:00:35.183Z,102126.13
2024-05-09T23:03:02.814Z,102121.75
2024-05-09T23:05:31.115Z,102123.50
2024-05-09T23:07:58.105Z,102119.09
2024-05-09T23:10:32.194Z,102127.91
2024-05-09T23:13:03.661Z,102126.16
2024-05-09T23:15:30.836Z,102126.00
2024-05-09T23:17:58.388Z,102125.28
2024-05-09T23:20:35.913Z,102129.69
2024-05-09T23:23:06.751Z,102132.28
2024-05-09T23:25:34.050Z,102131.41
2024-05-09T23:28:01.270Z,102139.34
2024-05-09T23:30:34.756Z,102132.28
2024-05-09T23:33:06.424Z,102122.63
2024-05-09T23:35:33.615Z,102122.63
2024-05-09T23:38:00.536Z,102125.13
2024-05-09T23:40:37.408Z,102118.22
2024-05-09T23:43:07.679Z,102125.28
2024-05-09T23:45:35.195Z,102119.13
2024-05-09T23:48:03.062Z,102113.81
2024-05-09T23:50:34.795Z,102116.47
2024-05-09T23:53:05.114Z,102124.28
2024-05-09T23:55:32.760Z,102122.59
2024-05-09T23:58:00.102Z,102118.19
